Alexandria, Virginia
Current Conditions -  °F | °C
As of 10:52 AM on Tuesday 21 Oct 2014 (Local Time) from KDCA Reporting Station
Broken Clouds Broken Clouds  
Wind Chill: 63°   Ceiling: 10000
Heat Index: 63°   Visibility: 10mi
Dew Point: 50°   Wind: 3mph
Humidity: 63%   Direction: 130°SE
Pressure: 29.88"   Gusts: NA
Location:  38.8°N, 77.04°W
Report Text: KDCA 211452Z 13003KT 10SM BKN100 17/10 A2988 RMK AO2 SLP118 T01720100 50003
Loading
Personal Weather Stations






























Interactive Weather Map
Tropical Storm Tracking
New forecast layout! Learn more

10-Day Weather Forecast

Advertisements
Track Severe Weather on mobile